Time;durP1;ratioP1;P1;durP2;ratioP2;P2;SDS_P1;SDS_P2;PMS_P1;PMS_P2;Temp;Humidity;BMP_temperature;BMP_pressure;BME280_temperature;BME280_humidity;BME280_pressure;Samples;Min_cycle;Max_cycle;Signal;HPM_P1;HPM_P2
2023/06/01 00:00:31;;;;;;;16.02;5.93;;;;;;;18.39;91.92;101389.03;4974565;28;20050;-87
2023/06/01 00:02:56;;;;;;;8.82;5.57;;;;;;;18.49;92.23;101400.56;4991384;28;20419;-87
2023/06/01 00:05:21;;;;;;;11.90;5.50;;;;;;;18.43;91.96;101382.63;4974574;28;20031;-87
2023/06/01 00:07:47;;;;;;;9.80;5.05;;;;;;;18.41;91.82;101395.00;4990785;28;20057;-87
2023/06/01 00:10:13;;;;;;;6.57;4.78;;;;;;;18.41;91.62;101395.00;4990698;28;20108;-88
2023/06/01 00:12:38;;;;;;;6.82;4.80;;;;;;;18.28;90.16;101383.69;4974378;28;20034;-87
2023/06/01 00:15:04;;;;;;;6.47;4.53;;;;;;;18.36;89.27;101399.72;4990241;28;20022;-89
2023/06/01 00:17:30;;;;;;;8.30;4.45;;;;;;;18.19;88.24;101382.56;4958055;28;20468;-87
2023/06/01 00:19:56;;;;;;;8.30;4.45;;;;;;;18.30;89.28;101393.13;4974164;28;20141;-87
2023/06/01 00:22:23;;;;;;;5.75;3.88;;;;;;;18.08;89.96;101392.91;4974160;28;20468;-87
2023/06/01 00:24:50;;;;;;;5.80;4.28;;;;;;;18.14;89.18;101392.50;4990566;28;20031;-87
2023/06/01 00:27:15;;;;;;;7.20;4.10;;;;;;;18.13;89.66;101395.22;4990190;28;20447;-87
2023/06/01 00:29:40;;;;;;;5.40;4.20;;;;;;;18.05;89.34;101380.88;4958192;28;20030;-87
2023/06/01 00:32:06;;;;;;;8.85;4.63;;;;;;;17.95;90.19;101381.59;4973718;28;20023;-88
2023/06/01 00:34:32;;;;;;;11.02;4.75;;;;;;;17.93;91.16;101375.66;4990101;28;20069;-87
2023/06/01 00:36:57;;;;;;;6.65;4.60;;;;;;;17.96;90.99;101373.66;4990365;28;20034;-87
2023/06/01 00:39:22;;;;;;;8.10;4.60;;;;;;;17.94;91.59;101365.06;4990603;28;20038;-87
2023/06/01 00:41:48;;;;;;;6.75;4.72;;;;;;;17.75;91.62;101341.09;4974033;28;20030;-87
2023/06/01 00:44:13;;;;;;;7.20;5.00;;;;;;;17.93;92.18;101379.09;4973910;28;20065;-87
2023/06/01 00:46:39;;;;;;;8.65;5.13;;;;;;;17.91;91.73;101375.75;4989937;28;20022;-87
2023/06/01 00:49:04;;;;;;;10.70;4.80;;;;;;;17.95;92.04;101373.75;4973961;28;20031;-88
2023/06/01 00:51:31;;;;;;;12.30;5.53;;;;;;;18.04;92.35;101381.00;4973892;28;20472;-88
2023/06/01 00:53:57;;;;;;;6.20;4.20;;;;;;;18.02;91.31;101372.41;4974136;28;20073;-87
2023/06/01 00:56:22;;;;;;;7.72;5.05;;;;;;;18.02;91.19;101383.72;4957737;28;20030;-87
2023/06/01 00:58:48;;;;;;;7.97;4.80;;;;;;;17.98;91.37;101363.91;4973933;28;20034;-88
2023/06/01 01:01:18;;;;;;;14.02;5.43;;;;;;;18.02;92.32;101381.09;4973666;28;20026;-87
2023/06/01 01:03:49;;;;;;;6.68;4.50;;;;;;;17.92;92.18;101364.34;4974597;28;20058;-87
2023/06/01 01:06:22;;;;;;;12.75;5.03;;;;;;;17.97;91.88;101366.63;4974590;28;20026;-88
2023/06/01 01:08:58;;;;;;;6.85;4.78;;;;;;;18.05;92.08;101386.13;4974598;28;20026;-87
2023/06/01 01:11:27;;;;;;;10.43;5.30;;;;;;;18.02;92.29;101388.94;4977067;28;20567;-87
2023/06/01 01:13:58;;;;;;;7.53;4.88;;;;;;;18.00;92.14;101380.38;4961315;28;20080;-87
2023/06/01 01:16:31;;;;;;;11.90;6.13;;;;;;;18.04;91.87;101384.44;4977926;28;20026;-87
2023/06/01 01:19:00;;;;;;;11.48;6.50;;;;;;;18.01;92.08;101376.81;4977305;28;20564;-87
2023/06/01 01:21:32;;;;;;;10.30;6.28;;;;;;;17.95;92.54;101365.91;4993631;28;20464;-87
2023/06/01 01:24:06;;;;;;;10.63;6.70;;;;;;;17.87;92.77;101358.56;4993777;28;20026;-88
2023/06/01 01:26:55;;;;;;;9.25;6.70;;;;;;;18.03;91.27;101374.91;4994799;28;20509;-87
2023/06/01 01:29:21;;;;;;;10.75;5.97;;;;;;;17.91;91.13;101354.81;4993241;28;20029;-87
2023/06/01 01:31:47;;;;;;;7.28;4.80;;;;;;;17.96;90.59;101372.81;4977466;28;20030;-87
2023/06/01 01:34:12;;;;;;;7.07;4.68;;;;;;;17.99;90.88;101381.31;4977050;28;20488;-87
2023/06/01 01:36:37;;;;;;;11.00;4.93;;;;;;;18.04;90.36;101379.22;4977093;28;20480;-87
2023/06/01 01:39:03;;;;;;;8.07;4.72;;;;;;;18.10;89.96;101374.50;4960986;28;20030;-87
2023/06/01 01:41:28;;;;;;;8.25;5.30;;;;;;;18.11;89.78;101376.19;4992958;28;20077;-88
2023/06/01 01:43:54;;;;;;;8.43;5.40;;;;;;;18.02;89.75;101372.41;4993972;28;20030;-88
2023/06/01 01:46:38;;;;;;;7.80;4.85;;;;;;;17.92;90.76;101368.75;4977061;28;20093;-88
2023/06/01 01:49:12;;;;;;;10.75;5.05;;;;;;;18.08;90.64;101377.19;4994684;28;20400;-87
2023/06/01 01:51:56;;;;;;;9.10;4.95;;;;;;;17.94;90.27;101357.22;4994287;28;20026;-88
2023/06/01 01:54:21;;;;;;;9.05;5.40;;;;;;;17.89;90.45;101367.16;4993042;28;20608;-88
2023/06/01 01:56:47;;;;;;;11.43;5.40;;;;;;;17.92;91.24;101379.22;4993103;28;20034;-88
2023/06/01 01:59:12;;;;;;;12.45;5.10;;;;;;;17.82;91.87;101363.28;4960362;28;20034;-87
2023/06/01 02:01:41;;;;;;;7.07;5.20;;;;;;;17.96;91.85;101373.66;4960536;28;20027;-88
2023/06/01 02:04:07;;;;;;;8.02;4.50;;;;;;;17.94;91.46;101374.69;4977505;28;20038;-88
2023/06/01 02:06:32;;;;;;;7.88;5.03;;;;;;;17.94;91.47;101380.78;4992665;28;20030;-88
2023/06/01 02:08:58;;;;;;;8.70;5.22;;;;;;;17.87;91.18;101379.50;4976890;28;20034;-87
2023/06/01 02:11:23;;;;;;;8.05;5.53;;;;;;;17.87;91.46;101374.28;4976066;28;20034;-88
2023/06/01 02:13:49;;;;;;;12.13;5.72;;;;;;;17.87;91.07;101384.75;4976575;28;20031;-87
2023/06/01 02:16:15;;;;;;;10.05;5.63;;;;;;;17.88;90.73;101378.56;4992774;28;20471;-88
2023/06/01 02:18:45;;;;;;;10.55;5.85;;;;;;;17.88;90.26;101368.09;4992223;28;20495;-86
2023/06/01 02:21:12;;;;;;;12.40;6.28;;;;;;;17.92;90.27;101385.28;4992068;28;20072;-87
2023/06/01 02:23:39;;;;;;;9.68;5.82;;;;;;;17.84;90.15;101386.75;4975703;28;20034;-88
2023/06/01 02:26:05;;;;;;;11.05;6.20;;;;;;;17.76;91.26;101375.00;4960334;28;20022;-87
2023/06/01 02:28:31;;;;;;;12.27;6.18;;;;;;;17.80;91.48;101380.88;4960208;28;20053;-88
2023/06/01 02:30:56;;;;;;;8.48;5.45;;;;;;;17.74;91.96;101373.44;4960177;28;20480;-88
2023/06/01 02:33:24;;;;;;;8.23;6.30;;;;;;;17.81;91.70;101379.09;4976127;28;20432;-87
2023/06/01 02:35:50;;;;;;;12.20;5.97;;;;;;;17.87;91.41;101395.22;4992438;28;20113;-87
2023/06/01 02:38:16;;;;;;;10.73;6.25;;;;;;;17.77;91.06;101389.75;4976486;28;20467;-87
2023/06/01 02:40:41;;;;;;;10.07;6.68;;;;;;;17.81;91.20;101402.66;4991993;28;20027;-87
2023/06/01 02:43:06;;;;;;;9.85;6.38;;;;;;;17.82;91.08;101402.56;4992192;28;20476;-87
2023/06/01 02:45:32;;;;;;;10.85;5.97;;;;;;;17.86;91.53;101404.00;4976120;28;20093;-88
2023/06/01 02:47:58;;;;;;;9.30;6.22;;;;;;;17.85;91.01;101391.03;4976026;28;20495;-88
2023/06/01 02:50:23;;;;;;;14.80;5.88;;;;;;;17.93;90.62;101400.03;4959801;28;20468;-87
2023/06/01 02:52:49;;;;;;;8.63;6.78;;;;;;;17.91;90.43;101404.56;4975878;28;20524;-87
2023/06/01 02:55:14;;;;;;;9.13;5.95;;;;;;;17.78;91.12;101377.50;4991765;28;20550;-87
2023/06/01 02:57:39;;;;;;;8.40;5.63;;;;;;;17.87;91.36;101400.44;4975832;28;20030;-88
2023/06/01 03:00:15;;;;;;;8.35;6.50;;;;;;;17.83;90.91;101390.28;4991775;28;20049;-90
2023/06/01 03:02:41;;;;;;;11.52;6.03;;;;;;;17.91;91.11;101396.69;4977005;28;20023;-87
2023/06/01 03:05:07;;;;;;;10.35;6.35;;;;;;;17.92;90.58;101406.22;4992092;28;20034;-88
2023/06/01 03:07:33;;;;;;;10.68;5.93;;;;;;;17.88;90.81;101399.50;4975840;28;20037;-87
2023/06/01 03:09:58;;;;;;;8.65;5.85;;;;;;;17.80;90.86;101383.50;4991511;28;20412;-87
2023/06/01 03:12:23;;;;;;;10.15;5.70;;;;;;;17.96;90.70;101405.06;4991641;28;20034;-87
2023/06/01 03:14:49;;;;;;;6.90;4.85;;;;;;;17.95;90.65;101408.63;4991656;28;20030;-87
2023/06/01 03:17:14;;;;;;;10.88;5.60;;;;;;;17.96;90.71;101410.28;4991592;28;20026;-87
2023/06/01 03:19:40;;;;;;;9.13;4.70;;;;;;;17.93;90.38;101400.03;4959052;28;20065;-87
2023/06/01 03:22:06;;;;;;;9.35;5.45;;;;;;;17.88;90.52;101390.81;4991108;28;20026;-88
2023/06/01 03:24:32;;;;;;;7.72;5.32;;;;;;;17.94;90.69;101408.72;4974850;28;20508;-88
2023/06/01 03:26:57;;;;;;;8.60;5.80;;;;;;;17.85;90.78;101391.88;4991147;28;20033;-87
2023/06/01 03:29:23;;;;;;;7.60;5.43;;;;;;;17.94;91.33;101406.94;4975237;28;20114;-89
2023/06/01 03:31:48;;;;;;;10.75;5.68;;;;;;;17.97;91.48;101396.25;4975238;28;20466;-87
2023/06/01 03:34:14;;;;;;;7.20;5.57;;;;;;;17.98;91.23;101408.41;4990636;28;20616;-87
2023/06/01 03:36:39;;;;;;;12.80;5.80;;;;;;;18.05;89.58;101409.69;4958871;28;20034;-87
2023/06/01 03:39:08;;;;;;;10.23;5.93;;;;;;;18.03;89.54;101414.19;4974953;28;20030;-88
2023/06/01 03:41:34;;;;;;;8.35;5.80;;;;;;;17.98;88.87;101407.56;4967866;28;20508;-89
2023/06/01 03:44:00;;;;;;;11.07;6.18;;;;;;;18.12;87.55;101409.28;4991174;28;20057;-88
2023/06/01 03:46:25;;;;;;;10.88;5.55;;;;;;;18.06;87.19;101419.22;4975220;28;20499;-89
2023/06/01 03:48:51;;;;;;;8.80;6.35;;;;;;;18.05;87.01;101420.16;4975325;28;20105;-91
2023/06/01 03:51:17;;;;;;;7.80;5.00;;;;;;;18.04;87.66;101418.47;4992543;28;20088;-91
2023/06/01 03:53:43;;;;;;;11.18;6.55;;;;;;;18.04;88.33;101418.47;4974993;28;20022;-92
2023/06/01 03:56:08;;;;;;;8.70;6.03;;;;;;;18.12;89.06;101411.91;4975171;28;20558;-89
2023/06/01 03:58:33;;;;;;;9.68;6.25;;;;;;;17.98;89.12;101403.16;4975503;28;20033;-88
2023/06/01 04:01:00;;;;;;;8.70;5.65;;;;;;;18.04;87.81;101413.25;4974470;28;20483;-88
2023/06/01 04:03:26;;;;;;;7.78;5.47;;;;;;;17.95;87.74;101403.38;4974560;28;20030;-87
2023/06/01 04:05:58;;;;;;;7.47;5.00;;;;;;;18.43;86.85;101403.59;4990523;28;20033;-86
2023/06/01 04:08:24;;;;;;;12.88;5.28;;;;;;;19.51;81.49;101413.34;4990262;28;20022;-86
2023/06/01 04:10:50;;;;;;;7.63;4.97;;;;;;;19.81;79.35;101407.63;4981483;28;20126;-87
2023/06/01 04:13:15;;;;;;;12.52;5.50;;;;;;;20.51;75.42;101409.28;5010072;28;20403;-87
2023/06/01 04:15:41;;;;;;;8.98;5.30;;;;;;;20.86;73.56;101406.50;4983978;28;20034;-88
2023/06/01 04:18:06;;;;;;;8.13;4.95;;;;;;;20.99;72.84;101414.25;4989617;28;20065;-80
2023/06/01 04:20:32;;;;;;;12.07;5.30;;;;;;;21.08;72.43;101413.50;4991435;28;20049;-91
2023/06/01 04:22:57;;;;;;;8.10;5.53;;;;;;;21.15;71.84;101409.41;4991141;28;20056;-91
2023/06/01 04:25:24;;;;;;;9.45;5.63;;;;;;;21.16;71.15;101387.41;4992199;28;20068;-84
2023/06/01 04:27:51;;;;;;;7.70;4.88;;;;;;;21.04;71.96;101412.06;4991317;28;20065;-85
2023/06/01 04:30:17;;;;;;;10.02;5.47;;;;;;;20.85;72.37;101418.81;4989410;28;20187;-86
2023/06/01 04:32:44;;;;;;;10.73;5.22;;;;;;;20.67;72.89;101408.91;4989914;28;20414;-86
2023/06/01 04:35:09;;;;;;;10.93;5.30;;;;;;;20.59;72.59;101415.59;4990361;28;20088;-87
2023/06/01 04:37:36;;;;;;;9.40;5.47;;;;;;;20.16;72.74;101394.44;4973889;28;20023;-90
2023/06/01 04:40:06;;;;;;;12.10;5.45;;;;;;;19.97;76.29;101416.03;4989982;28;20030;-86
2023/06/01 04:42:33;;;;;;;7.78;5.20;;;;;;;19.77;76.26;101427.19;4970197;28;20061;-88
2023/06/01 04:44:59;;;;;;;6.80;4.93;;;;;;;19.51;76.32;101421.22;4989437;28;20026;-91
2023/06/01 04:47:24;;;;;;;8.93;5.57;;;;;;;19.41;77.51;101422.84;4958040;28;20041;-90
2023/06/01 04:49:50;;;;;;;7.82;4.70;;;;;;;19.58;78.14;101422.47;4973359;28;20424;-84
2023/06/01 04:52:15;;;;;;;7.72;5.45;;;;;;;20.06;76.29;101419.75;4996581;28;20076;-91
2023/06/01 04:54:40;;;;;;;8.90;5.32;;;;;;;20.51;74.43;101419.78;4969580;28;20404;-87
2023/06/01 04:57:06;;;;;;;6.55;4.82;;;;;;;20.75;72.87;101428.41;4990019;28;20461;-86
2023/06/01 04:59:32;;;;;;;9.95;6.10;;;;;;;20.46;73.84;101414.06;4990825;28;20071;-87
2023/06/01 05:01:58;;;;;;;10.77;6.05;;;;;;;20.67;75.21;101425.53;4997434;28;20033;-86
2023/06/01 05:04:24;;;;;;;9.95;6.72;;;;;;;20.91;73.56;101415.69;4990593;28;20431;-87
2023/06/01 05:06:49;;;;;;;9.80;6.18;;;;;;;20.84;72.14;101404.00;4992042;28;20037;-89
2023/06/01 05:09:15;;;;;;;11.45;6.95;;;;;;;20.72;73.21;101410.22;4997185;28;20038;-93
2023/06/01 05:11:40;;;;;;;13.23;7.15;;;;;;;20.68;73.43;101421.94;4961868;28;20039;-91
2023/06/01 05:14:06;;;;;;;8.30;6.57;;;;;;;20.29;73.63;101415.34;4974636;28;20416;-90
2023/06/01 05:16:32;;;;;;;8.15;5.07;;;;;;;20.05;75.20;101420.66;4960318;28;20491;-92
2023/06/01 05:18:58;;;;;;;9.30;5.43;;;;;;;19.81;76.26;101420.75;4967180;28;20069;-87
2023/06/01 05:21:23;;;;;;;10.68;6.18;;;;;;;19.60;77.79;101393.47;4968521;28;20030;-88
2023/06/01 05:23:48;;;;;;;8.25;5.55;;;;;;;19.52;77.77;101403.69;5048200;23;20054;-92
2023/06/01 05:26:14;;;;;;;10.20;5.72;;;;;;;19.57;78.19;101418.19;5008294;28;20034;-87
2023/06/01 05:28:40;;;;;;;8.40;5.35;;;;;;;19.54;78.72;101422.75;5023924;28;20029;-89
2023/06/01 05:31:06;;;;;;;8.57;5.15;;;;;;;19.40;78.18;101400.19;5008363;28;20072;-88
2023/06/01 05:33:31;;;;;;;9.10;5.13;;;;;;;19.46;78.34;101428.56;5010279;28;20484;-89
2023/06/01 05:35:57;;;;;;;9.10;5.30;;;;;;;19.39;78.74;101427.38;5008724;28;20113;-92
2023/06/01 05:38:22;;;;;;;7.80;5.20;;;;;;;19.25;78.37;101424.91;5008566;28;20030;-90
2023/06/01 05:40:48;;;;;;;9.20;5.00;;;;;;;19.15;77.96;101417.69;4975679;28;20618;-91
2023/06/01 05:43:14;;;;;;;7.72;5.10;;;;;;;19.42;79.71;101425.34;4974611;28;20080;-91
2023/06/01 05:45:40;;;;;;;10.05;5.25;;;;;;;19.51;78.06;101423.00;5008904;28;20117;-88
2023/06/01 05:48:05;;;;;;;7.55;4.97;;;;;;;19.55;78.78;101427.06;5024652;28;20494;-91
2023/06/01 05:50:31;;;;;;;8.32;5.65;;;;;;;19.50;79.23;101427.41;5008033;28;20049;-87
2023/06/01 05:52:56;;;;;;;10.98;5.63;;;;;;;19.52;81.68;101430.75;4992103;28;20034;-93
2023/06/01 05:55:22;;;;;;;13.02;5.80;;;;;;;19.81;79.49;101427.78;5008622;28;20038;-87
2023/06/01 05:57:47;;;;;;;6.97;4.60;;;;;;;19.89;78.95;101434.16;5012000;28;20403;-89
2023/06/01 06:00:13;;;;;;;9.50;5.68;;;;;;;19.84;77.57;101423.13;5010933;28;20587;-88
2023/06/01 06:02:41;;;;;;;7.07;4.90;;;;;;;19.97;75.90;101431.78;5019229;28;20125;-88
2023/06/01 06:05:07;;;;;;;9.60;6.75;;;;;;;20.06;76.65;101435.50;5010298;28;20072;-92
2023/06/01 06:07:33;;;;;;;103.03;55.20;;;;;;;19.93;76.69;101409.31;5027008;28;20469;-87
2023/06/01 06:09:58;;;;;;;157.45;77.00;;;;;;;20.13;77.39;101431.44;5010954;28;20033;-87
2023/06/01 06:12:24;;;;;;;22.33;15.00;;;;;;;20.17;76.65;101434.69;5021982;28;20480;-93
2023/06/01 06:14:50;;;;;;;11.50;8.00;;;;;;;20.05;76.68;101428.53;5014834;28;20502;-90
2023/06/01 06:17:15;;;;;;;10.20;6.45;;;;;;;20.00;77.68;101438.59;5027441;28;20037;-90
2023/06/01 06:19:43;;;;;;;10.60;7.22;;;;;;;20.05;81.19;101442.50;5011861;28;20026;-87
2023/06/01 06:22:09;;;;;;;11.02;6.63;;;;;;;20.22;79.60;101430.72;5010458;28;20040;-92
2023/06/01 06:24:34;;;;;;;18.15;9.68;;;;;;;20.32;77.17;101436.13;5011831;28;20046;-93
2023/06/01 06:27:00;;;;;;;10.88;5.60;;;;;;;20.18;76.22;101434.56;5012388;28;20029;-89
2023/06/01 06:29:25;;;;;;;14.85;7.10;;;;;;;20.54;79.94;101440.56;5010826;28;20037;-90
2023/06/01 06:31:51;;;;;;;9.80;6.47;;;;;;;21.02;75.42;101441.13;5011996;28;20057;-91
2023/06/01 06:34:16;;;;;;;8.93;5.50;;;;;;;20.76;73.74;101437.13;4979141;28;20037;-91
2023/06/01 06:36:42;;;;;;;7.45;5.40;;;;;;;20.68;73.75;101442.13;5011913;28;20037;-87
2023/06/01 06:39:07;;;;;;;14.80;6.57;;;;;;;20.69;74.41;101442.00;5011625;28;20030;-89
2023/06/01 06:41:33;;;;;;;9.02;6.10;;;;;;;20.68;77.01;101448.22;4989896;28;22271;-92
2023/06/01 06:43:58;;;;;;;8.82;5.30;;;;;;;20.78;74.48;101446.56;5010677;28;20037;-87
2023/06/01 06:46:24;;;;;;;7.25;5.35;;;;;;;20.96;75.78;101446.06;5011170;28;20061;-88
2023/06/01 06:48:49;;;;;;;11.52;7.30;;;;;;;20.90;74.55;101442.94;5009723;28;20072;-91
2023/06/01 06:51:14;;;;;;;12.40;5.50;;;;;;;21.16;75.60;101442.66;5011312;28;21818;-92
2023/06/01 06:53:40;;;;;;;10.13;5.63;;;;;;;21.34;72.39;101446.47;5014345;28;20573;-91
2023/06/01 06:56:05;;;;;;;10.88;5.95;;;;;;;21.20;72.88;101446.72;4992705;28;20037;-87
2023/06/01 06:58:31;;;;;;;12.38;6.25;;;;;;;21.22;70.49;101446.56;5008727;28;20419;-87
2023/06/01 07:00:56;;;;;;;12.50;6.10;;;;;;;20.97;70.30;101408.28;5010023;28;20034;-88
2023/06/01 07:03:22;;;;;;;8.38;5.38;;;;;;;21.06;72.93;101447.00;5008866;28;20173;-84
2023/06/01 07:05:47;;;;;;;10.77;5.93;;;;;;;21.13;74.32;101437.63;5009179;28;20037;-85
2023/06/01 07:08:13;;;;;;;8.68;5.10;;;;;;;21.39;72.86;101449.56;5009846;28;20103;-90
2023/06/01 07:10:39;;;;;;;6.68;4.97;;;;;;;21.54;71.66;101447.47;5008644;28;20030;-85
2023/06/01 07:13:04;;;;;;;10.45;7.22;;;;;;;21.74;70.65;101443.19;5007997;28;20458;-86
2023/06/01 07:15:30;;;;;;;10.68;6.63;;;;;;;21.69;69.64;101450.63;5011595;28;20033;-91
2023/06/01 07:17:55;;;;;;;9.75;6.07;;;;;;;21.62;70.72;101452.09;4992307;28;20042;-88
2023/06/01 07:20:21;;;;;;;13.40;6.13;;;;;;;21.53;71.57;101450.22;4993443;28;20029;-88
2023/06/01 07:22:47;;;;;;;12.45;6.30;;;;;;;21.47;72.18;101457.66;5008733;28;20407;-90
2023/06/01 07:25:13;;;;;;;6.97;4.93;;;;;;;21.51;72.22;101455.59;5027123;28;20108;-93
2023/06/01 07:27:43;;;;;;;8.18;5.45;;;;;;;21.53;72.42;101453.69;5024158;28;20510;-90
2023/06/01 07:30:09;;;;;;;8.23;5.50;;;;;;;21.48;72.25;101454.06;5009676;28;20030;-86
2023/06/01 07:32:34;;;;;;;11.30;6.82;;;;;;;21.49;73.06;101449.63;5010664;28;20030;-88
2023/06/01 07:35:01;;;;;;;11.15;7.15;;;;;;;21.52;73.61;101454.63;5007819;28;20458;-85
2023/06/01 07:37:27;;;;;;;13.68;8.35;;;;;;;21.42;72.45;101449.28;5008361;28;20057;-87
2023/06/01 07:39:55;;;;;;;10.20;6.25;;;;;;;21.45;72.79;101443.81;5010222;28;20483;-92
2023/06/01 07:42:21;;;;;;;9.15;5.85;;;;;;;21.54;71.67;101454.53;4988070;28;20058;-91
2023/06/01 07:44:46;;;;;;;25.48;17.45;;;;;;;21.56;71.53;101444.72;5013492;28;20040;-90
2023/06/01 07:47:12;;;;;;;12.50;7.38;;;;;;;21.64;71.17;101453.66;4995074;28;20041;-92
2023/06/01 07:49:37;;;;;;;13.73;6.97;;;;;;;21.54;72.46;101420.31;4995127;28;20037;-91
2023/06/01 07:52:04;;;;;;;14.50;7.28;;;;;;;21.61;71.98;101447.78;5012212;28;20030;-85
2023/06/01 07:54:30;;;;;;;11.95;6.50;;;;;;;21.77;72.39;101445.56;4993914;28;20078;-92
2023/06/01 07:56:56;;;;;;;9.45;6.63;;;;;;;21.89;72.00;101447.16;5017427;28;20033;-89
2023/06/01 07:59:22;;;;;;;12.57;6.38;;;;;;;22.05;71.64;101447.56;5010626;28;20034;-90
2023/06/01 08:01:49;;;;;;;9.85;7.00;;;;;;;22.17;70.39;101437.81;4980038;28;20085;-87
2023/06/01 08:04:16;;;;;;;12.40;6.97;;;;;;;22.22;72.08;101443.53;5011080;28;20037;-89
2023/06/01 08:06:42;;;;;;;13.55;6.53;;;;;;;21.86;69.80;101415.00;4994059;28;20080;-92
2023/06/01 08:09:07;;;;;;;11.48;6.05;;;;;;;22.08;71.58;101443.03;5015795;28;20033;-91
2023/06/01 08:11:33;;;;;;;10.25;6.05;;;;;;;22.22;71.12;101442.69;5010257;28;20029;-93
2023/06/01 08:14:02;;;;;;;11.57;6.00;;;;;;;22.22;68.37;101437.41;4994033;28;20040;-89
2023/06/01 08:16:29;;;;;;;8.18;5.63;;;;;;;22.36;68.40;101441.53;4998782;28;20021;-91
2023/06/01 08:18:56;;;;;;;9.02;6.05;;;;;;;22.31;69.34;101445.38;5032719;28;20033;-87
2023/06/01 08:21:24;;;;;;;7.97;5.25;;;;;;;22.40;69.48;101440.28;4993449;28;20076;-86
2023/06/01 08:23:51;;;;;;;8.40;5.57;;;;;;;22.35;69.19;101411.69;5004365;28;20076;-92
2023/06/01 08:26:18;;;;;;;20.30;9.20;;;;;;;22.53;69.32;101431.19;5011062;28;20030;-93
2023/06/01 08:28:51;;;;;;;7.88;5.70;;;;;;;22.64;68.71;101427.63;5017942;28;20038;-86
2023/06/01 08:31:17;;;;;;;8.32;5.20;;;;;;;22.57;67.97;101415.94;5025074;28;20153;-86
2023/06/01 08:33:42;;;;;;;10.00;5.57;;;;;;;22.73;69.34;101432.09;5008662;28;20041;-87
2023/06/01 08:36:08;;;;;;;11.70;8.00;;;;;;;22.88;68.99;101416.75;5009238;28;20433;-90
2023/06/01 08:38:33;;;;;;;9.70;5.43;;;;;;;23.08;67.42;101429.00;5010022;28;20061;-86
2023/06/01 08:40:59;;;;;;;14.27;10.65;;;;;;;23.12;67.17;101422.50;4975211;28;20017;-91
2023/06/01 08:43:25;;;;;;;14.40;8.57;;;;;;;23.15;67.10;101416.94;4987208;28;20057;-90
2023/06/01 08:45:51;;;;;;;13.10;7.45;;;;;;;23.37;66.66;101420.28;4994515;28;20030;-92
2023/06/01 08:48:17;;;;;;;8.43;5.63;;;;;;;23.34;66.27;101424.03;4973676;28;20057;-89
2023/06/01 08:50:45;;;;;;;10.82;6.40;;;;;;;23.32;68.59;101422.50;5000741;28;20037;-88
2023/06/01 08:53:10;;;;;;;8.02;5.50;;;;;;;23.15;64.08;101401.09;5006667;28;20034;-90
2023/06/01 08:55:36;;;;;;;9.35;5.00;;;;;;;23.27;64.21;101414.16;4993642;28;20022;-93
2023/06/01 08:58:01;;;;;;;7.45;5.22;;;;;;;23.34;64.87;101381.78;5013594;28;20030;-92
2023/06/01 09:00:27;;;;;;;5.85;4.35;;;;;;;23.47;63.89;101392.88;4975054;28;20030;-86
2023/06/01 09:02:52;;;;;;;10.00;7.03;;;;;;;23.63;62.63;101402.94;5006823;28;20427;-89
2023/06/01 09:05:18;;;;;;;7.68;4.63;;;;;;;23.79;60.48;101404.97;5030293;28;20030;-90
2023/06/01 09:07:43;;;;;;;7.60;4.65;;;;;;;24.10;60.68;101396.84;5024449;28;21156;-89
2023/06/01 09:10:09;;;;;;;6.25;4.43;;;;;;;24.10;57.69;101397.69;5026110;28;20053;-87
2023/06/01 09:12:35;;;;;;;6.90;4.47;;;;;;;24.22;60.37;101393.88;5001113;28;20036;-86
2023/06/01 09:15:12;;;;;;;8.75;4.90;;;;;;;24.47;60.33;101395.03;5013519;28;20100;-86
2023/06/01 09:17:42;;;;;;;6.28;4.13;;;;;;;24.57;60.22;101389.69;5008836;28;20508;-89
2023/06/01 09:20:11;;;;;;;6.78;4.47;;;;;;;24.70;57.20;101392.84;5008860;28;20037;-86
2023/06/01 09:22:45;;;;;;;5.47;3.97;;;;;;;24.91;58.54;101397.03;5008560;28;20113;-88
2023/06/01 09:25:12;;;;;;;7.20;3.88;;;;;;;24.83;53.74;101384.53;5007950;28;20060;-89
2023/06/01 09:27:49;;;;;;;4.63;3.05;;;;;;;24.99;54.64;101394.47;5007306;28;20462;-91
2023/06/01 09:30:14;;;;;;;5.30;3.83;;;;;;;25.07;52.88;101389.28;4993474;28;20116;-90
2023/06/01 09:32:41;;;;;;;4.97;3.40;;;;;;;24.88;53.62;101387.59;5010072;28;20041;-90
2023/06/01 09:35:07;;;;;;;7.45;3.38;;;;;;;24.84;55.65;101387.03;5007614;28;20033;-89
2023/06/01 09:37:34;;;;;;;5.30;3.47;;;;;;;24.64;52.73;101361.69;5010031;28;20026;-87
2023/06/01 09:40:00;;;;;;;7.88;5.20;;;;;;;24.96;52.03;101381.53;5011107;28;20026;-89
2023/06/01 09:42:35;;;;;;;6.63;4.25;;;;;;;24.92;52.87;101383.66;4973235;28;20064;-92
2023/06/01 09:45:19;;;;;;;5.78;3.30;;;;;;;24.91;49.91;101366.13;5011230;28;20112;-93
2023/06/01 09:47:46;;;;;;;4.70;3.22;;;;;;;25.07;48.30;101374.25;4991633;28;20042;-92
2023/06/01 09:50:13;;;;;;;5.70;3.42;;;;;;;24.99;50.10;101349.47;5015466;28;20041;-93
2023/06/01 09:52:38;;;;;;;4.13;3.05;;;;;;;25.10;49.27;101375.75;4997650;28;20056;-92
2023/06/01 09:55:08;;;;;;;8.88;5.93;;;;;;;25.10;49.09;101359.88;5011392;28;20037;-88
2023/06/01 09:57:33;;;;;;;4.45;3.50;;;;;;;25.12;51.18;101357.91;5009729;28;20431;-90
2023/06/01 09:59:59;;;;;;;7.60;3.83;;;;;;;25.14;50.52;101356.75;4993949;28;20025;-91
2023/06/01 10:02:25;;;;;;;6.65;4.10;;;;;;;25.03;49.00;101353.50;5009734;28;20033;-92
2023/06/01 10:04:57;;;;;;;7.25;3.78;;;;;;;25.14;49.52;101340.88;5011559;28;20037;-90
2023/06/01 10:07:23;;;;;;;5.05;3.45;;;;;;;25.30;49.37;101358.72;4995273;28;20399;-87
2023/06/01 10:09:54;;;;;;;4.63;3.47;;;;;;;25.43;48.72;101356.50;5008469;28;20030;-87
2023/06/01 10:12:20;;;;;;;4.70;3.17;;;;;;;25.53;49.81;101359.06;5008471;28;20164;-89
2023/06/01 10:14:46;;;;;;;4.45;3.13;;;;;;;25.65;49.58;101354.34;5005887;28;20223;-88
2023/06/01 10:17:11;;;;;;;5.50;4.15;;;;;;;25.73;50.91;101349.13;4974927;28;20506;-88
2023/06/01 10:19:38;;;;;;;4.93;3.58;;;;;;;25.81;48.57;101354.47;5002401;28;20042;-88
2023/06/01 10:22:04;;;;;;;4.53;3.10;;;;;;;25.81;48.42;101354.47;5026807;28;20063;-91
2023/06/01 10:24:30;;;;;;;4.88;2.97;;;;;;;25.68;50.21;101343.44;5001491;28;20077;-86
2023/06/01 10:27:07;;;;;;;5.32;3.65;;;;;;;25.94;47.16;101349.56;5050226;28;20081;-89
2023/06/01 10:29:33;;;;;;;5.25;3.65;;;;;;;26.12;48.72;101346.03;5019978;28;20018;-89
2023/06/01 10:31:58;;;;;;;5.15;3.45;;;;;;;26.24;48.25;101318.22;4988742;28;20101;-89
2023/06/01 10:34:37;;;;;;;6.25;3.30;;;;;;;26.49;47.41;101338.56;4992035;28;20030;-91
2023/06/01 10:37:03;;;;;;;5.95;3.38;;;;;;;26.64;47.00;101330.81;4996705;28;20496;-89
2023/06/01 10:39:31;;;;;;;5.57;3.45;;;;;;;26.76;47.07;101305.63;5006797;28;20021;-89
2023/06/01 10:41:58;;;;;;;5.68;3.50;;;;;;;26.87;47.84;101325.72;4980064;28;20050;-89
2023/06/01 10:44:41;;;;;;;3.97;3.13;;;;;;;26.89;45.77;101318.41;4974179;28;20057;-89
2023/06/01 10:47:13;;;;;;;4.63;3.13;;;;;;;26.91;47.33;101313.75;4992441;28;20582;-92
2023/06/01 10:49:50;;;;;;;4.72;3.20;;;;;;;26.94;48.36;101294.00;4989988;28;20023;-88
2023/06/01 10:52:38;;;;;;;6.60;3.60;;;;;;;26.88;47.92;101295.53;5002515;28;20557;-88
2023/06/01 10:55:06;;;;;;;9.13;4.07;;;;;;;27.03;47.54;101280.59;5008941;28;20041;-86
2023/06/01 10:57:35;;;;;;;8.70;3.90;;;;;;;27.09;47.04;101282.59;5008694;28;20022;-89
2023/06/01 11:00:20;;;;;;;3.92;2.85;;;;;;;27.26;47.68;101288.75;5008400;28;20041;-88
2023/06/01 11:02:48;;;;;;;4.50;3.13;;;;;;;27.20;47.60;101272.63;4988410;28;20041;-87
2023/06/01 11:05:32;;;;;;;7.50;4.40;;;;;;;27.42;47.66;101275.41;5010279;28;20839;-86
2023/06/01 11:07:58;;;;;;;4.38;3.65;;;;;;;27.41;46.87;101252.50;5011310;28;20105;-91
2023/06/01 11:10:55;;;;;;;6.20;3.53;;;;;;;27.63;46.52;101274.03;5013013;28;20036;-88
2023/06/01 11:13:29;;;;;;;4.57;3.30;;;;;;;27.60;47.73;101266.41;5005335;28;20131;-86
2023/06/01 11:16:04;;;;;;;4.88;3.15;;;;;;;27.61;46.69;101276.88;5008036;28;20084;-90
2023/06/01 11:19:00;;;;;;;4.75;3.45;;;;;;;27.70;47.34;101275.88;5013929;28;20111;-87
2023/06/01 11:21:26;;;;;;;4.57;3.53;;;;;;;27.80;47.22;101277.50;5006614;28;20026;-93